createdAt,value
2018-12-24T00:02:03.595Z,10.21
2018-12-24T00:04:32.652Z,10.21
2018-12-24T00:07:01.667Z,10.18
2018-12-24T00:09:31.170Z,10.19
2018-12-24T00:12:07.049Z,10.22
2018-12-24T00:14:29.521Z,10.23
2018-12-24T00:16:58.619Z,10.25
2018-12-24T00:19:27.675Z,10.26
2018-12-24T00:21:56.726Z,10.28
2018-12-24T00:24:26.099Z,10.26
2018-12-24T00:26:55.990Z,10.26
2018-12-24T00:29:25.061Z,10.27
2018-12-24T00:31:54.969Z,10.28
2018-12-24T00:34:24.699Z,10.26
2018-12-24T00:36:54.906Z,10.23
2018-12-24T00:39:24.075Z,10.21
2018-12-24T00:41:53.230Z,10.17
2018-12-24T00:44:22.575Z,10.12
2018-12-24T00:46:51.601Z,10.08
2018-12-24T00:49:20.689Z,10.04
2018-12-24T00:51:50.098Z,10.02
2018-12-24T00:54:19.297Z,10.00
2018-12-24T00:56:48.427Z,9.99
2018-12-24T00:59:17.508Z,9.99
2018-12-24T01:01:48.920Z,9.99
2018-12-24T01:04:16.893Z,9.97
2018-12-24T01:06:46.072Z,9.97
2018-12-24T01:09:15.499Z,9.97
2018-12-24T01:11:45.569Z,9.96
2018-12-24T01:14:14.714Z,9.96
2018-12-24T01:16:43.790Z,9.94
2018-12-24T01:19:12.850Z,9.93
2018-12-24T01:21:41.962Z,9.92
2018-12-24T01:24:10.986Z,9.94
2018-12-24T01:26:40.077Z,9.94
2018-12-24T01:29:09.278Z,9.92
2018-12-24T01:31:38.378Z,9.88
2018-12-24T01:34:07.452Z,9.81
2018-12-24T01:36:36.549Z,9.78
2018-12-24T01:39:06.947Z,9.78
2018-12-24T01:41:35.998Z,9.79
2018-12-24T01:44:05.124Z,9.77
2018-12-24T01:46:34.187Z,9.76
2018-12-24T01:49:03.423Z,9.74
2018-12-24T01:51:32.529Z,9.71
2018-12-24T01:54:01.608Z,9.70
2018-12-24T01:56:30.787Z,9.69
2018-12-24T01:58:59.978Z,9.68
2018-12-24T02:01:29.026Z,9.68
2018-12-24T02:03:58.064Z,9.68
2018-12-24T02:06:27.168Z,9.70
2018-12-24T02:08:56.296Z,9.70
2018-12-24T02:11:25.349Z,9.69
2018-12-24T02:13:54.382Z,9.69
2018-12-24T02:16:23.422Z,9.69
2018-12-24T02:18:52.595Z,9.69
2018-12-24T02:21:21.669Z,9.69
2018-12-24T02:23:50.733Z,9.67
2018-12-24T02:26:19.783Z,9.68
2018-12-24T02:28:48.822Z,9.67
2018-12-24T02:31:17.976Z,9.67
2018-12-24T02:33:47.068Z,9.66
2018-12-24T02:36:16.219Z,9.64
2018-12-24T02:38:45.389Z,9.63
2018-12-24T02:41:14.502Z,9.61
2018-12-24T02:43:43.600Z,9.59
2018-12-24T02:46:12.626Z,9.59
2018-12-24T02:48:41.700Z,9.57
2018-12-24T02:51:10.751Z,9.57
2018-12-24T02:53:41.038Z,9.57
2018-12-24T02:56:10.960Z,9.55
2018-12-24T02:58:41.757Z,9.53
2018-12-24T03:01:10.832Z,9.55
2018-12-24T03:03:39.896Z,9.56
2018-12-24T03:06:09.037Z,9.57
2018-12-24T03:08:38.293Z,9.55
2018-12-24T03:11:07.365Z,9.55
2018-12-24T03:13:36.524Z,9.55
2018-12-24T03:16:06.505Z,9.53
2018-12-24T03:18:35.797Z,9.50
2018-12-24T03:21:05.024Z,9.50
2018-12-24T03:23:34.092Z,9.51
2018-12-24T03:26:03.800Z,9.49
2018-12-24T03:28:33.018Z,9.48
2018-12-24T03:31:02.263Z,9.47
2018-12-24T03:33:31.550Z,9.48
2018-12-24T03:36:00.758Z,9.49
2018-12-24T03:38:29.954Z,9.49
2018-12-24T03:40:59.004Z,9.49
2018-12-24T03:43:28.575Z,9.47
2018-12-24T03:46:00.578Z,9.46
2018-12-24T03:48:29.739Z,9.44
2018-12-24T03:51:00.471Z,9.44
2018-12-24T03:53:31.118Z,9.43
2018-12-24T03:56:03.146Z,9.42
2018-12-24T03:58:32.453Z,9.41
2018-12-24T04:01:02.190Z,9.40
2018-12-24T04:03:32.080Z,9.40
2018-12-24T04:09:04.631Z,9.34
2018-12-24T04:11:33.710Z,9.32
2018-12-24T04:14:02.762Z,9.30
2018-12-24T04:16:31.808Z,9.29
2018-12-24T04:19:00.905Z,9.28
2018-12-24T04:21:29.946Z,9.27
2018-12-24T04:23:59.084Z,9.24
2018-12-24T04:26:28.253Z,9.22
2018-12-24T04:28:57.338Z,9.21
2018-12-24T04:31:26.512Z,9.22
2018-12-24T04:33:55.584Z,9.20
2018-12-24T04:36:24.652Z,9.19
2018-12-24T04:38:53.783Z,9.18
2018-12-24T04:41:22.806Z,9.19
2018-12-24T04:43:51.898Z,9.18
2018-12-24T04:46:21.023Z,9.18
2018-12-24T04:48:50.209Z,9.17
2018-12-24T04:51:19.247Z,9.16
2018-12-24T04:53:48.388Z,9.16
2018-12-24T04:56:17.485Z,9.18
2018-12-24T04:58:46.580Z,9.18
2018-12-24T05:01:15.657Z,9.18
2018-12-24T05:03:44.740Z,9.16
2018-12-24T05:06:13.790Z,9.13
2018-12-24T05:08:42.855Z,9.13
2018-12-24T05:11:12.062Z,9.12
2018-12-24T05:13:41.274Z,9.13
2018-12-24T05:16:10.383Z,9.11
2018-12-24T05:18:39.519Z,9.12
2018-12-24T05:21:09.264Z,9.11
2018-12-24T05:23:38.543Z,9.11
2018-12-24T05:26:07.760Z,9.12
2018-12-24T05:28:36.899Z,9.09
2018-12-24T05:31:06.244Z,9.07
2018-12-24T05:33:35.442Z,9.09
2018-12-24T05:36:04.544Z,9.10
2018-12-24T05:38:33.591Z,9.09
2018-12-24T05:41:02.683Z,9.09
2018-12-24T05:43:31.748Z,9.10
2018-12-24T05:46:00.822Z,9.10
2018-12-24T05:48:29.940Z,9.08
2018-12-24T05:50:59.029Z,9.04
2018-12-24T05:53:28.096Z,9.05
2018-12-24T05:55:57.327Z,9.07
2018-12-24T05:58:26.366Z,9.09
2018-12-24T06:00:55.545Z,9.08
2018-12-24T06:03:24.722Z,9.09
2018-12-24T06:05:53.799Z,9.07
2018-12-24T06:08:22.836Z,9.04
2018-12-24T06:10:52.215Z,9.01
2018-12-24T06:13:21.283Z,8.98
2018-12-24T06:15:50.312Z,8.96
2018-12-24T06:18:20.175Z,8.94
2018-12-24T06:20:49.378Z,8.92
2018-12-24T06:23:18.416Z,8.90
2018-12-24T06:25:47.471Z,8.90
2018-12-24T06:28:16.499Z,8.86
2018-12-24T06:30:45.698Z,8.86
2018-12-24T06:33:14.739Z,8.86
2018-12-24T06:35:43.783Z,8.85
2018-12-24T06:38:12.868Z,8.85
2018-12-24T06:40:41.992Z,8.84
2018-12-24T06:43:11.070Z,8.82
2018-12-24T06:45:40.131Z,8.80
2018-12-24T06:48:09.278Z,8.80
2018-12-24T06:50:38.299Z,8.79
2018-12-24T06:53:07.391Z,8.78
2018-12-24T06:55:36.446Z,8.76
2018-12-24T06:58:05.547Z,8.79
2018-12-24T07:00:34.573Z,8.79
2018-12-24T07:03:08.179Z,8.79
2018-12-24T07:05:37.428Z,8.81
2018-12-24T07:08:06.454Z,8.83
2018-12-24T07:10:35.638Z,8.83
2018-12-24T07:13:04.747Z,8.82
2018-12-24T07:15:33.910Z,8.84
2018-12-24T07:18:03.100Z,8.86
2018-12-24T07:20:32.176Z,8.86
2018-12-24T07:23:01.210Z,8.88
2018-12-24T07:25:30.264Z,8.89
2018-12-24T07:27:59.465Z,8.90
2018-12-24T07:30:28.494Z,8.89
2018-12-24T07:32:57.616Z,8.88
2018-12-24T07:35:26.674Z,8.87
2018-12-24T07:37:55.779Z,8.87
2018-12-24T07:40:25.060Z,8.85
2018-12-24T07:42:54.116Z,8.84
2018-12-24T07:45:23.176Z,8.86
2018-12-24T07:47:52.193Z,8.86
2018-12-24T07:50:21.228Z,8.84
2018-12-24T07:52:50.281Z,8.85
2018-12-24T07:55:19.769Z,8.88
2018-12-24T07:57:48.911Z,8.87
2018-12-24T08:00:18.066Z,8.86
2018-12-24T08:02:47.130Z,8.84
2018-12-24T08:05:20.515Z,8.84
2018-12-24T08:07:49.599Z,8.86
2018-12-24T08:10:18.725Z,8.85
2018-12-24T08:12:47.972Z,8.83
2018-12-24T08:15:17.036Z,8.82
2018-12-24T08:17:46.193Z,8.84
2018-12-24T08:20:15.475Z,8.85
2018-12-24T08:22:44.606Z,8.85
2018-12-24T08:25:14.057Z,8.84
2018-12-24T08:27:43.231Z,8.85
2018-12-24T08:30:12.844Z,8.86
2018-12-24T08:32:41.974Z,8.86
2018-12-24T08:35:11.064Z,8.87
2018-12-24T08:37:40.123Z,8.89
2018-12-24T08:40:09.266Z,8.88
2018-12-24T08:42:38.806Z,8.90
2018-12-24T08:45:12.029Z,8.89
2018-12-24T08:47:41.326Z,8.92
2018-12-24T08:50:10.474Z,8.91
2018-12-24T08:52:39.905Z,8.94
2018-12-24T08:55:09.179Z,8.96
2018-12-24T08:57:38.234Z,8.97
2018-12-24T09:00:11.141Z,8.97
2018-12-24T09:02:40.273Z,8.98
2018-12-24T09:05:14.640Z,8.97
2018-12-24T09:07:44.050Z,9.00
2018-12-24T09:10:13.072Z,9.01
2018-12-24T09:12:42.485Z,9.00
2018-12-24T09:15:11.851Z,8.99
2018-12-24T09:17:41.069Z,8.95
2018-12-24T09:20:10.232Z,8.94
2018-12-24T09:22:39.331Z,8.96
2018-12-24T09:25:08.609Z,8.96
2018-12-24T09:27:37.630Z,8.97
2018-12-24T09:30:09.297Z,8.98
2018-12-24T09:32:38.494Z,8.97
2018-12-24T09:35:07.559Z,8.98
2018-12-24T09:37:36.743Z,9.00
2018-12-24T09:40:10.417Z,9.02
2018-12-24T09:42:39.698Z,9.00
2018-12-24T09:45:08.739Z,9.00
2018-12-24T09:47:40.838Z,9.00
2018-12-24T09:50:14.372Z,8.99
2018-12-24T09:52:44.233Z,9.01
2018-12-24T09:55:13.377Z,9.02
2018-12-24T09:57:42.478Z,9.02
2018-12-24T10:00:14.945Z,9.03
2018-12-24T10:05:40.697Z,9.10
2018-12-24T10:08:18.331Z,9.10
2018-12-24T10:10:48.784Z,9.11
2018-12-24T10:13:18.615Z,9.14
2018-12-24T10:15:49.171Z,9.16
2018-12-24T10:18:18.428Z,9.19
2018-12-24T10:20:47.521Z,9.21
2018-12-24T10:23:18.358Z,9.23
2018-12-24T10:25:47.657Z,9.24
2018-12-24T10:28:21.814Z,9.29
2018-12-24T10:30:52.534Z,9.30
2018-12-24T10:33:27.174Z,9.30
2018-12-24T10:35:57.119Z,9.31
2018-12-24T10:38:30.844Z,9.32
2018-12-24T10:41:08.569Z,9.30
2018-12-24T10:43:37.830Z,9.31
2018-12-24T10:46:10.135Z,9.34
2018-12-24T10:48:39.633Z,9.31
2018-12-24T10:51:08.805Z,9.30
2018-12-24T10:53:41.228Z,9.30
2018-12-24T10:56:12.017Z,9.36
2018-12-24T10:58:52.505Z,9.35
2018-12-24T11:01:25.408Z,9.38
2018-12-24T11:04:00.906Z,9.39
2018-12-24T11:06:30.718Z,9.41
2018-12-24T11:09:04.440Z,9.43
2018-12-24T11:11:34.425Z,9.45
2018-12-24T11:14:04.700Z,9.49
2018-12-24T11:16:35.068Z,9.53
2018-12-24T11:19:05.743Z,9.56
2018-12-24T11:21:36.269Z,9.57
2018-12-24T11:24:06.978Z,9.59
2018-12-24T11:26:36.292Z,9.61
2018-12-24T11:29:08.577Z,9.61
2018-12-24T11:31:49.937Z,9.62
2018-12-24T11:34:19.345Z,9.60
2018-12-24T11:36:48.445Z,9.58
2018-12-24T11:39:19.094Z,9.58
2018-12-24T11:41:51.961Z,9.58
2018-12-24T11:44:25.469Z,9.59
2018-12-24T11:46:57.543Z,9.59
2018-12-24T11:52:38.590Z,9.67
2018-12-24T11:55:09.555Z,9.66
2018-12-24T11:57:38.283Z,9.68
2018-12-24T12:00:24.673Z,9.69
2018-12-24T12:02:55.091Z,9.68
2018-12-24T12:05:26.790Z,9.69
2018-12-24T12:11:01.552Z,9.69
2018-12-24T12:18:59.135Z,9.69
2018-12-24T12:21:50.307Z,9.70
2018-12-24T12:27:25.250Z,9.73
2018-12-24T12:31:31.425Z,9.76
2018-12-24T12:34:02.676Z,9.77
2018-12-24T12:36:31.706Z,9.75
2018-12-24T12:39:00.875Z,9.73
2018-12-24T12:41:30.059Z,9.74
2018-12-24T12:44:00.539Z,9.74
2018-12-24T12:46:29.620Z,9.76
2018-12-24T12:48:58.684Z,9.77
2018-12-24T12:51:32.317Z,9.77
2018-12-24T12:54:06.516Z,9.76
2018-12-24T12:56:43.369Z,9.71
2018-12-24T12:59:14.183Z,9.69
2018-12-24T13:01:43.252Z,9.69
2018-12-24T13:04:12.993Z,9.69
2018-12-24T13:06:44.039Z,9.67
2018-12-24T13:09:14.910Z,9.70
2018-12-24T13:11:51.289Z,9.72
2018-12-24T13:14:20.450Z,9.72
2018-12-24T13:16:52.961Z,9.71
2018-12-24T13:19:24.440Z,9.69
2018-12-24T13:22:04.297Z,9.67
2018-12-24T13:24:29.896Z,9.66
2018-12-24T13:27:00.275Z,9.66
2018-12-24T13:29:29.940Z,9.67
2018-12-24T13:34:49.118Z,9.61
2018-12-24T13:37:19.281Z,9.63
2018-12-24T13:39:48.645Z,9.67
2018-12-24T13:42:19.885Z,9.68
2018-12-24T13:44:48.954Z,9.68
2018-12-24T13:47:18.086Z,9.67
2018-12-24T13:49:51.935Z,9.67
2018-12-24T13:52:19.765Z,9.66
2018-12-24T13:54:48.897Z,9.66
2018-12-24T13:57:19.095Z,9.66
2018-12-24T13:59:51.662Z,9.67
2018-12-24T14:02:33.984Z,9.71
2018-12-24T14:05:03.439Z,9.73
2018-12-24T14:07:34.214Z,9.75
2018-12-24T14:10:04.479Z,9.77
2018-12-24T14:12:33.509Z,9.80
2018-12-24T14:15:12.231Z,9.82
2018-12-24T14:17:47.664Z,9.81
2018-12-24T14:20:17.374Z,9.81
2018-12-24T14:22:46.371Z,9.80
2018-12-24T14:25:16.047Z,9.82
2018-12-24T14:27:45.179Z,9.83
2018-12-24T14:30:14.201Z,9.84
2018-12-24T14:32:44.215Z,9.86
2018-12-24T14:35:13.440Z,9.87
2018-12-24T14:37:43.530Z,9.88
2018-12-24T14:40:13.906Z,9.89
2018-12-24T14:42:43.001Z,9.91
2018-12-24T14:45:12.188Z,9.93
2018-12-24T14:47:41.331Z,9.97
2018-12-24T14:50:10.500Z,9.99
2018-12-24T14:52:39.879Z,9.99
2018-12-24T14:55:12.104Z,10.01
2018-12-24T14:57:41.775Z,10.01
2018-12-24T15:00:10.980Z,10.03
2018-12-24T15:02:39.991Z,10.02
2018-12-24T15:05:09.316Z,10.03
2018-12-24T15:07:38.368Z,10.04
2018-12-24T15:10:07.565Z,10.03
2018-12-24T15:12:36.787Z,10.03
2018-12-24T15:15:06.223Z,10.03
2018-12-24T15:17:37.443Z,10.02
2018-12-24T15:20:07.338Z,10.04
2018-12-24T15:22:37.176Z,10.02
2018-12-24T15:25:07.459Z,10.00
2018-12-24T15:27:36.676Z,10.00
2018-12-24T15:30:07.270Z,10.01
2018-12-24T15:32:36.568Z,10.02
2018-12-24T15:35:05.993Z,10.02
2018-12-24T15:37:35.290Z,10.03
2018-12-24T15:40:04.425Z,10.04
2018-12-24T15:42:33.440Z,10.02
2018-12-24T15:45:02.540Z,10.01
2018-12-24T15:47:31.717Z,10.00
2018-12-24T15:50:04.140Z,9.99
2018-12-24T15:52:33.331Z,10.00
2018-12-24T15:55:03.864Z,9.98
2018-12-24T15:57:33.032Z,9.99
2018-12-24T16:00:02.010Z,10.00
2018-12-24T16:02:31.002Z,10.02
2018-12-24T16:05:00.152Z,10.00
2018-12-24T16:07:29.505Z,9.99
2018-12-24T16:09:58.540Z,9.97
2018-12-24T16:12:28.228Z,9.96
2018-12-24T16:14:57.262Z,9.95
2018-12-24T16:17:26.284Z,9.92
2018-12-24T16:19:56.433Z,9.91
2018-12-24T16:22:25.479Z,9.88
2018-12-24T16:24:54.683Z,9.87
2018-12-24T16:27:23.717Z,9.83
2018-12-24T16:29:52.818Z,9.80
2018-12-24T16:32:21.844Z,9.78
2018-12-24T16:34:50.893Z,9.77
2018-12-24T16:37:19.902Z,9.77
2018-12-24T16:39:53.352Z,9.74
2018-12-24T16:42:23.522Z,9.74
2018-12-24T16:44:52.828Z,9.74
2018-12-24T16:47:21.883Z,9.74
2018-12-24T16:49:51.077Z,9.74
2018-12-24T16:52:20.127Z,9.72
2018-12-24T16:54:51.356Z,9.71
2018-12-24T16:57:20.654Z,9.70
2018-12-24T16:59:49.782Z,9.70
2018-12-24T17:02:18.813Z,9.69
2018-12-24T17:04:47.844Z,9.70
2018-12-24T17:07:17.649Z,9.71
2018-12-24T17:10:00.624Z,9.70
2018-12-24T17:12:29.923Z,9.70
2018-12-24T17:14:58.973Z,9.73
2018-12-24T17:17:29.146Z,9.73
2018-12-24T17:20:01.571Z,9.71
2018-12-24T17:22:30.705Z,9.74
2018-12-24T17:24:59.746Z,9.73
2018-12-24T17:27:28.745Z,9.73
2018-12-24T17:29:57.743Z,9.72
2018-12-24T17:32:27.178Z,9.71
2018-12-24T17:34:56.183Z,9.70
2018-12-24T17:37:25.232Z,9.71
2018-12-24T17:39:54.239Z,9.70
2018-12-24T17:42:23.414Z,9.70
2018-12-24T17:44:52.530Z,9.70
2018-12-24T17:47:21.708Z,9.69
2018-12-24T17:49:51.687Z,9.70
2018-12-24T17:52:20.872Z,9.72
2018-12-24T17:54:50.938Z,9.71
2018-12-24T17:57:20.011Z,9.68
2018-12-24T17:59:50.996Z,9.68
2018-12-24T18:02:20.042Z,9.68
2018-12-24T18:04:49.180Z,9.66
2018-12-24T18:07:18.745Z,9.64
2018-12-24T18:09:47.765Z,9.64
2018-12-24T18:12:17.268Z,9.64
2018-12-24T18:14:46.408Z,9.64
2018-12-24T18:17:15.628Z,9.65
2018-12-24T18:19:45.233Z,9.63
2018-12-24T18:22:14.355Z,9.65
2018-12-24T18:24:43.408Z,9.66
2018-12-24T18:27:12.428Z,9.67
2018-12-24T18:29:41.726Z,9.68
2018-12-24T18:32:10.732Z,9.69
2018-12-24T18:34:40.512Z,9.70
2018-12-24T18:37:09.502Z,9.71
2018-12-24T18:39:38.542Z,9.71
2018-12-24T18:42:07.542Z,9.71
2018-12-24T18:44:36.542Z,9.72
2018-12-24T18:47:05.957Z,9.74
2018-12-24T18:49:35.306Z,9.74
2018-12-24T18:52:04.085Z,9.73
2018-12-24T18:54:33.177Z,9.73
2018-12-24T18:57:02.310Z,9.73
2018-12-24T18:59:31.388Z,9.73
2018-12-24T19:02:00.556Z,9.74
2018-12-24T19:04:30.674Z,9.74
2018-12-24T19:06:59.714Z,9.73
2018-12-24T19:09:28.741Z,9.73
2018-12-24T19:11:57.990Z,9.72
2018-12-24T19:14:27.043Z,9.72
2018-12-24T19:16:56.185Z,9.71
2018-12-24T19:19:25.265Z,9.70
2018-12-24T19:21:55.025Z,9.71
2018-12-24T19:24:24.019Z,9.72
2018-12-24T19:26:54.096Z,9.74
2018-12-24T19:29:23.113Z,9.73
2018-12-24T19:31:55.983Z,9.74
2018-12-24T19:34:25.163Z,9.73
2018-12-24T19:36:54.178Z,9.73
2018-12-24T19:39:23.384Z,9.72
2018-12-24T19:41:52.435Z,9.73
2018-12-24T19:44:21.465Z,9.74
2018-12-24T19:46:51.530Z,9.76
2018-12-24T19:49:20.598Z,9.77
2018-12-24T19:51:49.621Z,9.77
2018-12-24T19:54:18.729Z,9.77
2018-12-24T19:56:48.815Z,9.79
2018-12-24T19:59:17.826Z,9.79
2018-12-24T20:01:47.059Z,9.80
2018-12-24T20:04:16.048Z,9.82
2018-12-24T20:06:45.144Z,9.81
2018-12-24T20:09:16.250Z,9.83
2018-12-24T20:11:44.133Z,9.83
2018-12-24T20:14:13.308Z,9.83
2018-12-24T20:16:42.350Z,9.84
2018-12-24T20:19:11.400Z,9.85
2018-12-24T20:21:40.404Z,9.86
2018-12-24T20:24:10.292Z,9.86
2018-12-24T20:26:39.318Z,9.88
2018-12-24T20:29:09.494Z,9.89
2018-12-24T20:31:38.573Z,9.89
2018-12-24T20:34:07.579Z,9.91
2018-12-24T20:36:36.576Z,9.92
2018-12-24T20:39:08.892Z,9.93
2018-12-24T20:41:37.963Z,9.93
2018-12-24T20:44:07.094Z,9.94
2018-12-24T20:46:36.183Z,9.95
2018-12-24T20:49:05.328Z,9.97
2018-12-24T20:51:34.340Z,9.96
2018-12-24T20:54:04.273Z,9.97
2018-12-24T20:56:33.474Z,9.97
2018-12-24T20:59:02.468Z,9.98
2018-12-24T21:01:31.512Z,9.98
2018-12-24T21:04:00.574Z,10.00
2018-12-24T21:06:29.764Z,10.00
2018-12-24T21:08:59.131Z,10.00
2018-12-24T21:11:28.167Z,10.00
2018-12-24T21:13:57.157Z,10.00
2018-12-24T21:16:26.316Z,10.01
2018-12-24T21:18:55.307Z,10.03
2018-12-24T21:21:24.343Z,10.02
2018-12-24T21:23:53.374Z,10.03
2018-12-24T21:26:22.421Z,10.02
2018-12-24T21:28:51.444Z,10.03
2018-12-24T21:31:20.574Z,10.04
2018-12-24T21:33:49.698Z,10.05
2018-12-24T21:36:19.037Z,10.07
2018-12-24T21:38:48.062Z,10.06
2018-12-24T21:41:17.095Z,10.07
2018-12-24T21:43:46.107Z,10.08
2018-12-24T21:46:15.183Z,10.09
2018-12-24T21:48:44.192Z,10.08
2018-12-24T21:51:13.370Z,10.10
2018-12-24T21:53:42.465Z,10.10
2018-12-24T21:56:11.507Z,10.11
2018-12-24T21:58:40.652Z,10.11
2018-12-24T22:01:09.724Z,10.11
2018-12-24T22:03:38.837Z,10.12
2018-12-24T22:06:07.999Z,10.11
2018-12-24T22:08:37.071Z,10.12
2018-12-24T22:11:07.500Z,10.12
2018-12-24T22:13:36.519Z,10.12
2018-12-24T22:16:05.592Z,10.14
2018-12-24T22:18:34.703Z,10.12
2018-12-24T22:21:05.035Z,10.13
2018-12-24T22:23:34.687Z,10.12
2018-12-24T22:26:03.738Z,10.12
2018-12-24T22:28:32.753Z,10.12
2018-12-24T22:31:01.795Z,10.13
2018-12-24T22:33:30.824Z,10.12
2018-12-24T22:35:59.867Z,10.12
2018-12-24T22:38:28.918Z,10.12
2018-12-24T22:41:04.649Z,10.12
2018-12-24T22:43:33.694Z,10.12
2018-12-24T22:46:03.250Z,10.12
2018-12-24T22:48:40.484Z,10.12
2018-12-24T22:51:01.474Z,10.11
2018-12-24T22:53:30.495Z,10.11
2018-12-24T22:55:59.600Z,10.09
2018-12-24T22:58:28.785Z,10.08
2018-12-24T23:00:58.026Z,10.06
2018-12-24T23:03:27.167Z,10.07
2018-12-24T23:05:56.998Z,10.05
2018-12-24T23:08:26.214Z,10.05
2018-12-24T23:10:55.274Z,10.05
2018-12-24T23:13:24.983Z,10.05
2018-12-24T23:15:54.062Z,10.04
2018-12-24T23:18:23.155Z,10.04
2018-12-24T23:20:52.207Z,10.03
2018-12-24T23:23:21.322Z,10.03
2018-12-24T23:25:50.417Z,10.03
2018-12-24T23:28:20.587Z,10.04
2018-12-24T23:30:52.770Z,10.04
2018-12-24T23:33:21.902Z,10.06
2018-12-24T23:35:51.951Z,10.07
2018-12-24T23:38:21.576Z,10.08
2018-12-24T23:40:50.658Z,10.09
2018-12-24T23:43:19.738Z,10.10
2018-12-24T23:45:51.010Z,10.12
2018-12-24T23:48:20.499Z,10.12
2018-12-24T23:50:49.533Z,10.13
2018-12-24T23:53:19.747Z,10.13
2018-12-24T23:55:48.788Z,10.15
2018-12-24T23:58:17.923Z,10.15
